Time;durP1;ratioP1;P1;durP2;ratioP2;P2;SDS_P1;SDS_P2;PMS_P1;PMS_P2;Temp;Humidity;BMP_temperature;BMP_pressure;BME280_temperature;BME280_humidity;BME280_pressure;Samples;Min_cycle;Max_cycle;Signal;HPM_P1;HPM_P2
2021/07/31 00:01:06;;;;;;;4.63;4.00;;;;;;;;;;5055585;28;20020;-60
2021/07/31 00:03:31;;;;;;;4.80;4.18;;;;;;;;;;5073188;28;20051;-60
2021/07/31 00:05:56;;;;;;;4.25;3.85;;;;;;;;;;5072918;28;20087;-60
2021/07/31 00:08:21;;;;;;;5.07;4.32;;;;;;;;;;5073257;28;20020;-60
2021/07/31 00:10:47;;;;;;;6.80;4.63;;;;;;;;;;5059722;28;20017;-60
2021/07/31 00:13:12;;;;;;;5.18;4.68;;;;;;;;;;5071878;28;20054;-60
2021/07/31 00:15:37;;;;;;;5.47;4.35;;;;;;;;;;5073157;28;20134;-60
2021/07/31 00:18:03;;;;;;;6.30;3.55;;;;;;;;;;5073166;28;20375;-60
2021/07/31 00:20:28;;;;;;;4.80;4.33;;;;;;;;;;5073123;28;20030;-60
2021/07/31 00:22:53;;;;;;;4.90;4.45;;;;;;;;;;5072495;28;20636;-60
2021/07/31 00:25:18;;;;;;;4.75;4.35;;;;;;;;;;5072944;28;20047;-60
2021/07/31 00:27:43;;;;;;;4.75;4.35;;;;;;;;;;5072628;28;20021;-59
2021/07/31 00:30:09;;;;;;;4.73;4.27;;;;;;;;;;5072986;28;20445;-60
2021/07/31 00:32:34;;;;;;;5.07;4.68;;;;;;;;;;5072785;28;20277;-60
2021/07/31 00:34:59;;;;;;;4.23;3.93;;;;;;;;;;5072277;28;20031;-60
2021/07/31 00:37:25;;;;;;;4.47;4.07;;;;;;;;;;5072661;28;20267;-60
2021/07/31 00:39:50;;;;;;;5.38;4.10;;;;;;;;;;5072381;28;20179;-61
2021/07/31 00:42:15;;;;;;;5.57;4.63;;;;;;;;;;5072416;28;20078;-60
2021/07/31 00:44:40;;;;;;;5.05;4.57;;;;;;;;;;5072296;28;20382;-60
2021/07/31 00:47:05;;;;;;;5.30;4.13;;;;;;;;;;5072085;28;20028;-61
2021/07/31 00:49:31;;;;;;;4.65;4.00;;;;;;;;;;5072668;28;20355;-60
2021/07/31 00:51:57;;;;;;;4.95;4.45;;;;;;;;;;5072263;28;20474;-60
2021/07/31 00:54:22;;;;;;;7.35;4.25;;;;;;;;;;5072382;28;20091;-60
2021/07/31 00:56:48;;;;;;;5.78;3.85;;;;;;;;;;5072289;28;20020;-60
2021/07/31 00:59:13;;;;;;;5.00;4.60;;;;;;;;;;5072243;28;20074;-60
2021/07/31 01:01:40;;;;;;;3.83;3.53;;;;;;;;;;5072398;28;20024;-61
2021/07/31 01:04:05;;;;;;;4.70;3.78;;;;;;;;;;5071537;28;20025;-60
2021/07/31 01:06:30;;;;;;;4.32;3.97;;;;;;;;;;5071086;28;20044;-60
2021/07/31 01:08:55;;;;;;;4.32;3.92;;;;;;;;;;5072164;28;20441;-60
2021/07/31 01:11:20;;;;;;;4.78;3.97;;;;;;;;;;5072040;28;20028;-60
2021/07/31 01:13:46;;;;;;;4.10;3.75;;;;;;;;;;5072398;28;20522;-60
2021/07/31 01:16:12;;;;;;;4.40;4.10;;;;;;;;;;5071354;28;20071;-60
2021/07/31 01:18:38;;;;;;;4.43;4.05;;;;;;;;;;5072036;28;20486;-61
2021/07/31 01:21:03;;;;;;;5.15;4.50;;;;;;;;;;5072266;28;20025;-60
2021/07/31 01:23:28;;;;;;;5.82;4.72;;;;;;;;;;5071981;28;20020;-60
2021/07/31 01:25:54;;;;;;;5.72;4.40;;;;;;;;;;5071851;28;20040;-61
2021/07/31 01:28:19;;;;;;;4.13;3.78;;;;;;;;;;5071963;28;20020;-61
2021/07/31 01:30:44;;;;;;;4.13;3.80;;;;;;;;;;5071963;28;20024;-60
2021/07/31 01:33:10;;;;;;;4.90;4.05;;;;;;;;;;5071538;28;20028;-58
2021/07/31 01:35:35;;;;;;;4.38;3.97;;;;;;;;;;5071880;28;20052;-60
2021/07/31 01:38:01;;;;;;;4.50;4.20;;;;;;;;;;5071272;28;20036;-60
2021/07/31 01:40:27;;;;;;;4.95;4.40;;;;;;;;;;5053454;28;20067;-60
2021/07/31 01:42:55;;;;;;;4.70;3.63;;;;;;;;;;5071872;28;20040;-61
2021/07/31 01:45:20;;;;;;;4.60;4.20;;;;;;;;;;5071797;28;20025;-59
2021/07/31 01:47:45;;;;;;;5.18;4.05;;;;;;;;;;5070699;28;20382;-60
2021/07/31 01:50:11;;;;;;;4.30;3.88;;;;;;;;;;5071698;28;20028;-60
2021/07/31 01:52:36;;;;;;;4.18;3.72;;;;;;;;;;5073399;28;20028;-60
2021/07/31 01:55:01;;;;;;;5.03;3.70;;;;;;;;;;5075824;28;20035;-60
2021/07/31 01:57:26;;;;;;;5.78;4.15;;;;;;;;;;5075686;28;20267;-61
2021/07/31 01:59:51;;;;;;;4.50;4.10;;;;;;;;;;5075821;28;20023;-60
2021/07/31 02:02:17;;;;;;;5.70;4.07;;;;;;;;;;5075441;28;20298;-60
2021/07/31 02:04:42;;;;;;;4.38;3.97;;;;;;;;;;5075251;28;20262;-60
2021/07/31 02:07:09;;;;;;;4.38;3.97;;;;;;;;;;5075107;28;20049;-61
2021/07/31 02:09:34;;;;;;;4.78;4.25;;;;;;;;;;5075636;28;20012;-61
2021/07/31 02:11:59;;;;;;;4.60;4.07;;;;;;;;;;5069400;28;20108;-60
2021/07/31 02:14:24;;;;;;;5.05;4.28;;;;;;;;;;5055479;28;20028;-61
2021/07/31 02:16:49;;;;;;;4.68;4.28;;;;;;;;;;5068260;28;20036;-60
2021/07/31 02:19:14;;;;;;;4.40;3.95;;;;;;;;;;5075529;28;20017;-61
2021/07/31 02:21:40;;;;;;;5.28;4.03;;;;;;;;;;5075039;28;20035;-60
2021/07/31 02:24:05;;;;;;;3.97;3.53;;;;;;;;;;5075462;28;20448;-61
2021/07/31 02:26:30;;;;;;;8.38;4.28;;;;;;;;;;5075099;28;20462;-60
2021/07/31 02:28:55;;;;;;;5.13;3.97;;;;;;;;;;5075315;28;20016;-61
2021/07/31 02:31:21;;;;;;;5.38;4.22;;;;;;;;;;5075005;28;20066;-60
2021/07/31 02:33:46;;;;;;;4.18;3.70;;;;;;;;;;5056963;28;20324;-60
2021/07/31 02:36:11;;;;;;;4.18;3.88;;;;;;;;;;5074781;28;20044;-61
2021/07/31 02:38:37;;;;;;;4.07;3.78;;;;;;;;;;5074713;28;20024;-60
2021/07/31 02:41:02;;;;;;;6.43;3.72;;;;;;;;;;5067788;28;20021;-60
2021/07/31 02:43:27;;;;;;;4.38;3.78;;;;;;;;;;5037153;28;20488;-61
2021/07/31 02:45:53;;;;;;;4.20;3.78;;;;;;;;;;5068349;28;20491;-61
2021/07/31 02:48:18;;;;;;;5.68;3.95;;;;;;;;;;5062502;28;20044;-61
2021/07/31 02:50:44;;;;;;;4.00;3.60;;;;;;;;;;5074811;28;20485;-60
2021/07/31 02:53:09;;;;;;;4.90;3.50;;;;;;;;;;5074679;28;20277;-60
2021/07/31 02:55:34;;;;;;;3.65;3.30;;;;;;;;;;5074658;28;20038;-61
2021/07/31 02:58:00;;;;;;;3.77;3.47;;;;;;;;;;5074341;28;20043;-60
2021/07/31 03:00:25;;;;;;;4.00;3.70;;;;;;;;;;5074103;28;20298;-60
2021/07/31 03:02:50;;;;;;;3.33;3.03;;;;;;;;;;5074076;28;20667;-60
2021/07/31 03:05:15;;;;;;;5.03;3.20;;;;;;;;;;5073592;28;20083;-60
2021/07/31 03:07:41;;;;;;;4.15;2.95;;;;;;;;;;5074373;28;20264;-60
2021/07/31 03:10:07;;;;;;;3.35;2.78;;;;;;;;;;5074603;28;20062;-60
2021/07/31 03:12:33;;;;;;;3.47;3.10;;;;;;;;;;5074467;28;20056;-60
2021/07/31 03:14:58;;;;;;;3.67;2.80;;;;;;;;;;5073459;28;20048;-60
2021/07/31 03:17:23;;;;;;;6.72;3.10;;;;;;;;;;5074129;28;20404;-60
2021/07/31 03:19:49;;;;;;;2.50;2.30;;;;;;;;;;5074426;28;20021;-60
2021/07/31 03:22:14;;;;;;;3.70;2.83;;;;;;;;;;5074222;28;20021;-61
2021/07/31 03:24:39;;;;;;;3.33;2.40;;;;;;;;;;5073896;28;20024;-61
2021/07/31 03:27:05;;;;;;;2.80;2.60;;;;;;;;;;5074489;28;20020;-60
2021/07/31 03:29:34;;;;;;;2.83;2.63;;;;;;;;;;5073966;28;20536;-60
2021/07/31 03:31:59;;;;;;;3.28;2.42;;;;;;;;;;5074164;28;20379;-60
2021/07/31 03:34:25;;;;;;;2.67;2.35;;;;;;;;;;5073309;28;20107;-60
2021/07/31 03:36:53;;;;;;;3.58;2.90;;;;;;;;;;5073808;28;20071;-59
2021/07/31 03:39:25;;;;;;;2.70;2.47;;;;;;;;;;5073926;28;20490;-60
2021/07/31 03:41:51;;;;;;;3.10;2.80;;;;;;;;;;5073705;28;20074;-60
2021/07/31 03:44:16;;;;;;;3.42;2.50;;;;;;;;;;5073250;28;20021;-60
2021/07/31 03:46:45;;;;;;;4.05;2.53;;;;;;;;;;5073392;28;20028;-59
2021/07/31 03:49:10;;;;;;;2.60;2.40;;;;;;;;;;5073727;28;20016;-61
2021/07/31 03:51:36;;;;;;;3.28;2.63;;;;;;;;;;5073527;28;20066;-60
2021/07/31 03:54:01;;;;;;;3.25;2.50;;;;;;;;;;5073550;28;20017;-60
2021/07/31 03:56:26;;;;;;;2.70;2.50;;;;;;;;;;5073725;28;20033;-61
2021/07/31 03:58:53;;;;;;;3.20;2.90;;;;;;;;;;5073153;28;20031;-60
2021/07/31 04:01:24;;;;;;;2.90;2.45;;;;;;;;;;5073509;28;20021;-61
2021/07/31 04:03:50;;;;;;;5.07;2.90;;;;;;;;;;5072479;28;20040;-60
2021/07/31 04:06:15;;;;;;;2.60;2.40;;;;;;;;;;5073119;28;20072;-60
2021/07/31 04:08:41;;;;;;;3.20;2.90;;;;;;;;;;5073236;28;20466;-59
2021/07/31 04:11:06;;;;;;;2.90;2.60;;;;;;;;;;5073393;28;20469;-60
2021/07/31 04:13:31;;;;;;;3.88;3.25;;;;;;;;;;5072360;28;20448;-60
2021/07/31 04:15:56;;;;;;;2.50;2.20;;;;;;;;;;5072508;28;20052;-60
2021/07/31 04:18:21;;;;;;;4.22;2.10;;;;;;;;;;5073186;28;20523;-60
2021/07/31 04:20:47;;;;;;;2.92;2.42;;;;;;;;;;5073015;28;20029;-61
2021/07/31 04:23:12;;;;;;;4.20;2.90;;;;;;;;;;5054736;28;20012;-60
2021/07/31 04:25:38;;;;;;;2.72;2.50;;;;;;;;;;5073019;28;20025;-60
2021/07/31 04:28:03;;;;;;;3.35;2.45;;;;;;;;;;5072745;28;20012;-60
2021/07/31 04:30:29;;;;;;;2.92;2.70;;;;;;;;;;5072749;28;20398;-61
2021/07/31 04:32:55;;;;;;;3.60;2.72;;;;;;;;;;5072968;28;20017;-60
2021/07/31 04:35:20;;;;;;;2.67;2.40;;;;;;;;;;5072643;28;20020;-58
2021/07/31 04:37:45;;;;;;;3.88;2.75;;;;;;;;;;5072817;28;20016;-60
2021/07/31 04:40:11;;;;;;;2.67;2.27;;;;;;;;;;5072093;28;20090;-60
2021/07/31 04:42:36;;;;;;;3.25;2.75;;;;;;;;;;5072404;28;20275;-60
2021/07/31 04:45:01;;;;;;;3.15;2.45;;;;;;;;;;5072558;28;20017;-60
2021/07/31 04:47:26;;;;;;;2.85;2.47;;;;;;;;;;5072641;28;20081;-60
2021/07/31 04:49:51;;;;;;;3.08;2.38;;;;;;;;;;5072204;28;20462;-61
2021/07/31 04:52:17;;;;;;;2.83;1.80;;;;;;;;;;5051725;28;20032;-60
2021/07/31 04:54:42;;;;;;;3.63;2.10;;;;;;;;;;5072313;28;20032;-60
2021/07/31 04:57:09;;;;;;;3.35;2.13;;;;;;;;;;5072604;28;20016;-61
2021/07/31 04:59:34;;;;;;;3.88;2.30;;;;;;;;;;5072693;28;20036;-61
2021/07/31 05:01:59;;;;;;;3.10;2.25;;;;;;;;;;5072524;28;20032;-60
2021/07/31 05:04:26;;;;;;;3.05;2.33;;;;;;;;;;5072085;28;20044;-60
2021/07/31 05:06:51;;;;;;;2.58;2.10;;;;;;;;;;5071975;28;20478;-60
2021/07/31 05:09:16;;;;;;;2.75;2.40;;;;;;;;;;5072025;28;20103;-60
2021/07/31 05:11:41;;;;;;;2.90;2.17;;;;;;;;;;5072309;28;20028;-60
2021/07/31 05:14:07;;;;;;;2.70;1.55;;;;;;;;;;5071806;28;20111;-60
2021/07/31 05:16:32;;;;;;;3.47;1.70;;;;;;;;;;5071891;28;20019;-60
2021/07/31 05:18:57;;;;;;;2.42;1.70;;;;;;;;;;5072174;28;20024;-60
2021/07/31 05:21:23;;;;;;;1.65;1.40;;;;;;;;;;5072072;28;20029;-61
2021/07/31 05:23:48;;;;;;;3.20;1.77;;;;;;;;;;5072041;28;20012;-60
2021/07/31 05:26:13;;;;;;;2.50;1.70;;;;;;;;;;5071515;28;20020;-61
2021/07/31 05:28:38;;;;;;;3.10;1.50;;;;;;;;;;5071983;28;20050;-60
2021/07/31 05:31:04;;;;;;;2.30;1.50;;;;;;;;;;5071569;28;20020;-60
2021/07/31 05:33:29;;;;;;;3.30;1.50;;;;;;;;;;5071604;28;20187;-61
2021/07/31 05:35:54;;;;;;;2.15;1.40;;;;;;;;;;5071876;28;20489;-61
2021/07/31 05:38:19;;;;;;;4.55;1.10;;;;;;;;;;5071490;28;20028;-61
2021/07/31 05:40:44;;;;;;;3.65;1.58;;;;;;;;;;5071517;28;20484;-61
2021/07/31 05:43:09;;;;;;;1.88;0.88;;;;;;;;;;5071883;28;20023;-59
2021/07/31 05:45:35;;;;;;;0.95;0.80;;;;;;;;;;5071451;28;20025;-59
2021/07/31 05:48:00;;;;;;;3.30;1.13;;;;;;;;;;5071673;28;20067;-58
2021/07/31 05:50:25;;;;;;;1.65;0.90;;;;;;;;;;5065042;28;20053;-60
2021/07/31 05:52:51;;;;;;;2.53;0.90;;;;;;;;;;5051472;28;20017;-60
2021/07/31 05:55:16;;;;;;;5.15;1.55;;;;;;;;;;5051832;28;20021;-60
2021/07/31 05:57:41;;;;;;;3.42;1.20;;;;;;;;;;5051715;28;20108;-60
2021/07/31 06:00:07;;;;;;;2.10;1.10;;;;;;;;;;5064803;28;20067;-60
2021/07/31 06:02:32;;;;;;;1.35;0.90;;;;;;;;;;5071106;28;20279;-60
2021/07/31 06:04:57;;;;;;;1.35;0.90;;;;;;;;;;5071168;28;20418;-60
2021/07/31 06:07:22;;;;;;;2.95;1.42;;;;;;;;;;5071693;28;20440;-61
2021/07/31 06:09:51;;;;;;;1.70;0.70;;;;;;;;;;5071642;28;20381;-60
2021/07/31 06:12:17;;;;;;;4.03;0.88;;;;;;;;;;5063201;28;20043;-61
2021/07/31 06:14:42;;;;;;;3.08;1.00;;;;;;;;;;5063471;28;20431;-60
2021/07/31 06:17:07;;;;;;;2.20;0.90;;;;;;;;;;5071648;28;20103;-60
2021/07/31 06:19:33;;;;;;;2.50;0.90;;;;;;;;;;5071426;28;20255;-60
2021/07/31 06:21:59;;;;;;;3.30;1.38;;;;;;;;;;5071230;28;20436;-60
2021/07/31 06:24:24;;;;;;;3.20;0.77;;;;;;;;;;5071504;28;20073;-61
2021/07/31 06:26:49;;;;;;;0.75;0.47;;;;;;;;;;5071407;28;20154;-61
2021/07/31 06:29:15;;;;;;;1.20;0.60;;;;;;;;;;5071084;28;20497;-60
2021/07/31 06:31:40;;;;;;;3.50;0.75;;;;;;;;;;5071490;28;20021;-60
2021/07/31 06:34:05;;;;;;;2.13;0.63;;;;;;;;;;5071102;28;20078;-61
2021/07/31 06:36:30;;;;;;;4.18;0.98;;;;;;;;;;5071410;28;20686;-60
2021/07/31 06:38:55;;;;;;;1.80;0.50;;;;;;;;;;5073113;28;20066;-60
2021/07/31 06:41:21;;;;;;;1.30;0.30;;;;;;;;;;5065160;28;20283;-59
2021/07/31 06:43:46;;;;;;;2.35;0.40;;;;;;;;;;5071562;28;20350;-61
2021/07/31 06:46:15;;;;;;;1.92;0.50;;;;;;;;;;5075321;28;20103;-60
2021/07/31 06:48:40;;;;;;;1.65;0.38;;;;;;;;;;5074938;28;20082;-60
2021/07/31 06:51:06;;;;;;;3.35;0.65;;;;;;;;;;5056610;28;20024;-60
2021/07/31 06:53:31;;;;;;;0.77;0.40;;;;;;;;;;5074684;28;20016;-60
2021/07/31 06:56:00;;;;;;;1.80;0.50;;;;;;;;;;5074830;28;20024;-60
2021/07/31 06:58:25;;;;;;;2.25;0.50;;;;;;;;;;5074538;28;20048;-60
2021/07/31 07:00:50;;;;;;;1.15;0.30;;;;;;;;;;5074241;28;20070;-60
2021/07/31 07:03:16;;;;;;;3.50;0.40;;;;;;;;;;5074271;28;20020;-60
2021/07/31 07:05:41;;;;;;;2.90;0.45;;;;;;;;;;5074300;28;20481;-60
2021/07/31 07:08:06;;;;;;;3.75;0.50;;;;;;;;;;5074526;28;20021;-60
2021/07/31 07:10:32;;;;;;;2.30;0.50;;;;;;;;;;5074759;28;20036;-60
2021/07/31 07:12:57;;;;;;;2.67;0.40;;;;;;;;;;5073918;28;20024;-61
2021/07/31 07:15:22;;;;;;;1.23;0.47;;;;;;;;;;5074009;28;20021;-60
2021/07/31 07:17:48;;;;;;;3.22;0.50;;;;;;;;;;5074179;28;20837;-61
2021/07/31 07:20:13;;;;;;;3.83;0.55;;;;;;;;;;5074274;28;20012;-61
2021/07/31 07:22:38;;;;;;;1.83;0.30;;;;;;;;;;5074064;28;20429;-60
2021/07/31 07:25:03;;;;;;;1.65;0.30;;;;;;;;;;5074342;28;20287;-61
2021/07/31 07:27:29;;;;;;;2.30;0.50;;;;;;;;;;5073491;28;20082;-61
2021/07/31 07:29:54;;;;;;;1.45;0.30;;;;;;;;;;5074262;28;20020;-61
2021/07/31 07:32:19;;;;;;;1.53;0.30;;;;;;;;;;5074252;28;20028;-60
2021/07/31 07:34:44;;;;;;;2.15;0.55;;;;;;;;;;5074480;28;20297;-60
2021/07/31 07:37:09;;;;;;;4.53;0.50;;;;;;;;;;5073943;28;20059;-60
2021/07/31 07:39:35;;;;;;;2.88;0.50;;;;;;;;;;5073976;28;20339;-60
2021/07/31 07:42:02;;;;;;;1.45;0.47;;;;;;;;;;5073228;28;20530;-60
2021/07/31 07:44:27;;;;;;;0.55;0.20;;;;;;;;;;5052358;28;20079;-61
2021/07/31 07:46:52;;;;;;;2.53;0.40;;;;;;;;;;5053739;28;20029;-60
2021/07/31 07:49:18;;;;;;;1.23;0.30;;;;;;;;;;5053148;28;20024;-61
2021/07/31 07:51:43;;;;;;;2.97;0.68;;;;;;;;;;5072151;28;20321;-61
2021/07/31 07:54:08;;;;;;;2.92;0.60;;;;;;;;;;5073737;28;20446;-61
2021/07/31 07:56:33;;;;;;;2.07;0.53;;;;;;;;;;5051871;28;20104;-60
2021/07/31 07:59:00;;;;;;;5.37;0.70;;;;;;;;;;5053540;28;20267;-61
2021/07/31 08:01:25;;;;;;;1.85;0.40;;;;;;;;;;5054374;28;20271;-61
2021/07/31 08:03:50;;;;;;;1.73;0.30;;;;;;;;;;5073019;28;20021;-60
2021/07/31 08:06:16;;;;;;;2.72;0.55;;;;;;;;;;5073262;28;20115;-61
2021/07/31 08:08:42;;;;;;;2.40;0.70;;;;;;;;;;5073204;28;20055;-61
2021/07/31 08:11:08;;;;;;;3.08;0.90;;;;;;;;;;5073422;28;20051;-61
2021/07/31 08:13:33;;;;;;;3.20;0.60;;;;;;;;;;5051797;28;20109;-60
2021/07/31 08:15:58;;;;;;;1.37;0.30;;;;;;;;;;5059086;28;20024;-62
2021/07/31 08:18:23;;;;;;;1.90;0.37;;;;;;;;;;5072380;28;20789;-60
2021/07/31 08:20:49;;;;;;;2.63;0.37;;;;;;;;;;5072801;28;20271;-61
2021/07/31 08:23:14;;;;;;;0.75;0.50;;;;;;;;;;5073052;28;20282;-60
2021/07/31 08:25:39;;;;;;;4.35;0.40;;;;;;;;;;5072791;28;20021;-60
2021/07/31 08:28:04;;;;;;;2.85;0.30;;;;;;;;;;5073481;28;20021;-61
2021/07/31 08:30:29;;;;;;;3.60;0.33;;;;;;;;;;5073064;28;20099;-60
2021/07/31 08:32:55;;;;;;;1.10;0.20;;;;;;;;;;5072790;28;20827;-61
2021/07/31 08:35:20;;;;;;;1.43;0.40;;;;;;;;;;5072313;28;20047;-61
2021/07/31 08:37:45;;;;;;;2.20;0.40;;;;;;;;;;5072370;28;20258;-62
2021/07/31 08:40:11;;;;;;;1.70;0.20;;;;;;;;;;5072108;28;20484;-61
2021/07/31 08:42:38;;;;;;;2.47;0.30;;;;;;;;;;5071159;28;20389;-60
2021/07/31 08:45:04;;;;;;;0.70;0.13;;;;;;;;;;5072088;28;20493;-61
2021/07/31 08:47:31;;;;;;;1.77;0.25;;;;;;;;;;5072262;28;20024;-62
2021/07/31 08:49:57;;;;;;;1.30;0.68;;;;;;;;;;5072361;28;20047;-60
2021/07/31 08:52:23;;;;;;;1.00;0.20;;;;;;;;;;5072220;28;20125;-61
2021/07/31 08:54:48;;;;;;;3.85;0.60;;;;;;;;;;5072558;28;20021;-60
2021/07/31 08:57:14;;;;;;;0.77;0.10;;;;;;;;;;5072257;28;20023;-61
2021/07/31 08:59:39;;;;;;;0.55;0.20;;;;;;;;;;5072192;28;20032;-60
2021/07/31 09:02:04;;;;;;;2.55;0.40;;;;;;;;;;5071816;28;20043;-60
2021/07/31 09:04:29;;;;;;;3.95;0.40;;;;;;;;;;5072025;28;20058;-60
2021/07/31 09:06:55;;;;;;;1.17;0.40;;;;;;;;;;5072015;28;20036;-60
2021/07/31 09:09:24;;;;;;;2.05;0.30;;;;;;;;;;5071893;28;20269;-61
2021/07/31 09:11:54;;;;;;;2.50;0.45;;;;;;;;;;5054094;28;20031;-60
2021/07/31 09:14:19;;;;;;;1.70;0.30;;;;;;;;;;5071790;28;20213;-61
2021/07/31 09:16:45;;;;;;;1.52;0.50;;;;;;;;;;5072143;28;20058;-61
2021/07/31 09:19:11;;;;;;;3.38;0.57;;;;;;;;;;5071656;28;20032;-61
2021/07/31 09:21:36;;;;;;;3.20;0.40;;;;;;;;;;5053787;28;20036;-61
2021/07/31 09:24:02;;;;;;;2.67;0.40;;;;;;;;;;5071597;28;20432;-61
2021/07/31 09:26:30;;;;;;;2.90;0.55;;;;;;;;;;5054209;28;20013;-62
2021/07/31 09:29:00;;;;;;;2.13;0.45;;;;;;;;;;5077033;28;20073;-61
2021/07/31 09:31:25;;;;;;;0.82;0.20;;;;;;;;;;5092169;28;20466;-60
2021/07/31 09:33:50;;;;;;;2.47;0.20;;;;;;;;;;5077901;28;20024;-61
2021/07/31 09:36:16;;;;;;;2.03;0.20;;;;;;;;;;5071995;28;20052;-60
2021/07/31 09:38:45;;;;;;;2.45;0.28;;;;;;;;;;5071522;28;20032;-60
2021/07/31 09:41:28;;;;;;;1.85;0.32;;;;;;;;;;5053583;28;20386;-56
2021/07/31 09:44:13;;;;;;;1.40;0.40;;;;;;;;;;5071817;28;20017;-60
2021/07/31 09:46:40;;;;;;;1.33;0.30;;;;;;;;;;5071686;28;20016;-61
2021/07/31 09:49:06;;;;;;;2.38;0.20;;;;;;;;;;5071601;28;20024;-61
2021/07/31 09:51:36;;;;;;;1.77;0.30;;;;;;;;;;5072016;28;20035;-61
2021/07/31 09:54:03;;;;;;;1.25;0.10;;;;;;;;;;5071342;28;20025;-60
2021/07/31 09:56:32;;;;;;;2.40;0.40;;;;;;;;;;5071618;28;20402;-60
2021/07/31 09:58:58;;;;;;;1.52;0.20;;;;;;;;;;5051518;28;20106;-59
2021/07/31 10:01:24;;;;;;;1.83;0.20;;;;;;;;;;5050336;28;20486;-60
2021/07/31 10:03:50;;;;;;;0.82;0.10;;;;;;;;;;5051508;28;20021;-61
2021/07/31 10:06:15;;;;;;;1.27;0.20;;;;;;;;;;5051410;28;20049;-61
2021/07/31 10:08:41;;;;;;;0.77;0.20;;;;;;;;;;5060448;28;20048;-60
2021/07/31 10:11:07;;;;;;;1.50;0.28;;;;;;;;;;5071295;28;20024;-60
2021/07/31 10:13:34;;;;;;;0.68;0.10;;;;;;;;;;5072744;28;20032;-61
2021/07/31 10:15:59;;;;;;;2.50;0.10;;;;;;;;;;5075552;28;20536;-60
2021/07/31 10:18:26;;;;;;;2.27;0.10;;;;;;;;;;5075518;28;20021;-60
2021/07/31 10:20:51;;;;;;;1.67;0.32;;;;;;;;;;5075340;28;20782;-60
2021/07/31 10:23:35;;;;;;;1.20;0.20;;;;;;;;;;5075009;28;20056;-60
2021/07/31 10:26:07;;;;;;;0.77;0.30;;;;;;;;;;5075354;28;20016;-60
2021/07/31 10:28:32;;;;;;;0.47;0.20;;;;;;;;;;5075031;28;20021;-60
2021/07/31 10:31:16;;;;;;;1.43;0.30;;;;;;;;;;5075322;28;20017;-60
2021/07/31 10:33:42;;;;;;;2.55;0.20;;;;;;;;;;5074305;28;20297;-60
2021/07/31 10:36:27;;;;;;;0.52;0.20;;;;;;;;;;5075110;28;20082;-60
2021/07/31 10:38:52;;;;;;;0.70;0.20;;;;;;;;;;5074922;28;20024;-60
2021/07/31 10:41:37;;;;;;;0.87;0.20;;;;;;;;;;5074908;28;20021;-60
2021/07/31 10:44:09;;;;;;;1.88;0.32;;;;;;;;;;5074797;28;20266;-60
2021/07/31 10:46:34;;;;;;;1.40;0.30;;;;;;;;;;5074796;28;20070;-60
2021/07/31 10:49:19;;;;;;;2.50;0.20;;;;;;;;;;5074548;28;20028;-60
2021/07/31 10:51:45;;;;;;;0.50;0.20;;;;;;;;;;5074546;28;20255;-60
2021/07/31 10:54:10;;;;;;;1.75;0.20;;;;;;;;;;5074532;28;20030;-57
2021/07/31 10:56:51;;;;;;;2.53;0.20;;;;;;;;;;5074543;28;20103;-60
2021/07/31 10:59:17;;;;;;;1.95;0.22;;;;;;;;;;5074560;28;20024;-61
2021/07/31 11:01:42;;;;;;;1.80;0.22;;;;;;;;;;5074587;28;20085;-60
2021/07/31 11:04:07;;;;;;;0.20;0.17;;;;;;;;;;5074202;28;20016;-60
2021/07/31 11:06:52;;;;;;;2.10;0.40;;;;;;;;;;5074456;28;20094;-60
2021/07/31 11:09:18;;;;;;;1.58;0.20;;;;;;;;;;5074290;28;20032;-60
2021/07/31 11:11:43;;;;;;;0.37;0.13;;;;;;;;;;5070718;28;20077;-60
2021/07/31 11:14:08;;;;;;;2.15;0.50;;;;;;;;;;5074214;28;20344;-61
2021/07/31 11:16:34;;;;;;;2.00;0.40;;;;;;;;;;5074180;28;20488;-61
2021/07/31 11:19:00;;;;;;;3.00;0.65;;;;;;;;;;5069847;28;20359;-61
2021/07/31 11:21:33;;;;;;;2.00;0.30;;;;;;;;;;5073880;28;20024;-62
2021/07/31 11:24:04;;;;;;;1.58;0.20;;;;;;;;;;5073942;28;20031;-62
2021/07/31 11:26:36;;;;;;;1.88;0.20;;;;;;;;;;5074301;28;20093;-62
2021/07/31 11:29:06;;;;;;;0.40;0.38;;;;;;;;;;5074126;28;20528;-61
2021/07/31 11:31:31;;;;;;;1.85;0.10;;;;;;;;;;5073925;28;20095;-61
2021/07/31 11:33:57;;;;;;;1.10;0.30;;;;;;;;;;5073632;28;20025;-61
2021/07/31 11:36:22;;;;;;;1.85;0.28;;;;;;;;;;5074106;28;20039;-61
2021/07/31 11:38:49;;;;;;;0.70;0.40;;;;;;;;;;5055821;28;20101;-61
2021/07/31 11:41:14;;;;;;;1.95;0.28;;;;;;;;;;5073750;28;20427;-61
2021/07/31 11:43:53;;;;;;;1.52;0.30;;;;;;;;;;5055169;28;20744;-61
2021/07/31 11:46:27;;;;;;;1.05;0.22;;;;;;;;;;5073845;28;20019;-60
2021/07/31 11:48:53;;;;;;;;;;;;;;;;;;5071561;28;20596;-59
2021/07/31 11:51:18;;;;;;;1.05;0.40;;;;;;;;;;5059848;28;20421;-60
2021/07/31 11:53:43;;;;;;;2.38;0.30;;;;;;;;;;5073417;28;20104;-60
2021/07/31 11:56:13;;;;;;;4.03;0.40;;;;;;;;;;5073376;28;20025;-60
2021/07/31 11:58:40;;;;;;;1.17;0.30;;;;;;;;;;5073741;28;20024;-60
2021/07/31 12:01:07;;;;;;;1.45;0.20;;;;;;;;;;5073683;28;20099;-60
2021/07/31 12:03:48;;;;;;;0.60;0.38;;;;;;;;;;5073290;28;20100;-60
2021/07/31 12:06:28;;;;;;;1.10;0.20;;;;;;;;;;5073315;28;20078;-60
2021/07/31 12:08:57;;;;;;;0.88;0.25;;;;;;;;;;5073011;28;20390;-60
2021/07/31 12:11:41;;;;;;;1.30;0.30;;;;;;;;;;5072925;28;20040;-61
2021/07/31 12:14:25;;;;;;;1.50;0.20;;;;;;;;;;5073291;28;20351;-61
2021/07/31 12:16:50;;;;;;;2.55;0.30;;;;;;;;;;5073303;28;20428;-61
2021/07/31 12:19:15;;;;;;;2.07;0.30;;;;;;;;;;5073240;28;20108;-61
2021/07/31 12:21:40;;;;;;;0.93;0.20;;;;;;;;;;5059769;28;20031;-60
2021/07/31 12:24:15;;;;;;;1.80;0.40;;;;;;;;;;5072404;28;20029;-60
2021/07/31 12:26:50;;;;;;;1.35;0.40;;;;;;;;;;5073092;28;20021;-61
2021/07/31 12:29:30;;;;;;;0.47;0.30;;;;;;;;;;5073089;28;20021;-61
2021/07/31 12:32:15;;;;;;;1.77;0.28;;;;;;;;;;5072818;28;20012;-61
2021/07/31 12:34:40;;;;;;;1.88;0.30;;;;;;;;;;5072486;28;20029;-61
2021/07/31 12:37:06;;;;;;;0.90;0.20;;;;;;;;;;5072081;28;20027;-61
2021/07/31 12:39:31;;;;;;;0.60;0.20;;;;;;;;;;5082755;28;20332;-61
2021/07/31 12:41:56;;;;;;;3.20;0.40;;;;;;;;;;5063988;28;20319;-61
2021/07/31 12:44:21;;;;;;;1.58;0.30;;;;;;;;;;5065469;28;20031;-61
2021/07/31 12:46:46;;;;;;;2.73;0.37;;;;;;;;;;5072418;28;20017;-61
2021/07/31 12:49:12;;;;;;;3.00;0.40;;;;;;;;;;5072570;28;20267;-61
2021/07/31 12:51:37;;;;;;;0.60;0.20;;;;;;;;;;5072714;28;20063;-61
2021/07/31 12:54:02;;;;;;;1.83;0.10;;;;;;;;;;5072079;28;20361;-60
2021/07/31 12:56:27;;;;;;;2.85;0.40;;;;;;;;;;5072488;28;20274;-61
2021/07/31 12:58:52;;;;;;;1.93;0.20;;;;;;;;;;5072167;28;20021;-61
2021/07/31 13:01:18;;;;;;;2.10;0.43;;;;;;;;;;5072350;28;20709;-62
2021/07/31 13:03:43;;;;;;;1.23;0.20;;;;;;;;;;5072290;28;20012;-61
2021/07/31 13:06:08;;;;;;;2.15;0.20;;;;;;;;;;5072100;28;20337;-60
2021/07/31 13:08:33;;;;;;;0.60;0.35;;;;;;;;;;5071950;28;20115;-60
2021/07/31 13:10:59;;;;;;;1.43;0.20;;;;;;;;;;5071652;28;20021;-60
2021/07/31 13:13:24;;;;;;;1.25;0.30;;;;;;;;;;5053991;28;20594;-60
2021/07/31 13:15:49;;;;;;;0.65;0.20;;;;;;;;;;5052279;28;20074;-60
2021/07/31 13:18:20;;;;;;;0.80;0.20;;;;;;;;;;5063873;28;20012;-60
2021/07/31 13:20:45;;;;;;;2.10;0.20;;;;;;;;;;5071574;28;20009;-60
2021/07/31 13:23:10;;;;;;;2.00;0.30;;;;;;;;;;5071274;28;20024;-60
2021/07/31 13:25:37;;;;;;;0.57;0.20;;;;;;;;;;5071963;28;20274;-60
2021/07/31 13:28:02;;;;;;;2.13;0.40;;;;;;;;;;5071865;28;20051;-60
2021/07/31 13:30:28;;;;;;;1.85;0.52;;;;;;;;;;5071812;28;20051;-60
2021/07/31 13:32:53;;;;;;;1.52;0.30;;;;;;;;;;5071810;28;20086;-60
2021/07/31 13:35:18;;;;;;;0.98;0.30;;;;;;;;;;5053852;28;20020;-60
2021/07/31 13:37:49;;;;;;;2.05;0.10;;;;;;;;;;5071720;28;20078;-61
2021/07/31 13:40:22;;;;;;;2.95;0.30;;;;;;;;;;5072407;28;20027;-60
2021/07/31 13:42:49;;;;;;;2.60;0.40;;;;;;;;;;5071924;28;20329;-61
2021/07/31 13:45:14;;;;;;;1.73;0.30;;;;;;;;;;5071630;28;20023;-59
2021/07/31 13:47:40;;;;;;;3.53;0.40;;;;;;;;;;5071457;28;20017;-61
2021/07/31 13:50:06;;;;;;;0.65;0.20;;;;;;;;;;5071880;28;20013;-60
2021/07/31 13:52:31;;;;;;;1.23;0.22;;;;;;;;;;5071281;28;20024;-59
2021/07/31 13:54:56;;;;;;;1.33;0.20;;;;;;;;;;5071897;28;20381;-61
2021/07/31 13:57:22;;;;;;;1.83;0.30;;;;;;;;;;5071538;28;20267;-60
2021/07/31 13:59:47;;;;;;;1.13;0.20;;;;;;;;;;5071824;28;20059;-60
2021/07/31 14:02:12;;;;;;;0.90;0.30;;;;;;;;;;5071561;28;20312;-60
2021/07/31 14:04:37;;;;;;;1.17;0.30;;;;;;;;;;5071487;28;20283;-61
2021/07/31 14:07:03;;;;;;;0.73;0.30;;;;;;;;;;5071023;28;20490;-60
2021/07/31 14:09:28;;;;;;;0.70;0.30;;;;;;;;;;5071206;28;20023;-60
2021/07/31 14:11:53;;;;;;;1.00;0.40;;;;;;;;;;5066067;28;20021;-60
2021/07/31 14:14:18;;;;;;;1.53;0.40;;;;;;;;;;5051654;28;20032;-60
2021/07/31 14:16:44;;;;;;;2.73;0.40;;;;;;;;;;5051266;28;20247;-61
2021/07/31 14:19:10;;;;;;;4.60;0.40;;;;;;;;;;5066736;28;20792;-60
2021/07/31 14:21:35;;;;;;;2.53;0.40;;;;;;;;;;5071260;28;20028;-60
2021/07/31 14:24:01;;;;;;;1.08;0.30;;;;;;;;;;5071154;28;20059;-61
2021/07/31 14:26:27;;;;;;;1.55;0.40;;;;;;;;;;5071587;28;20370;-60
2021/07/31 14:28:52;;;;;;;2.33;0.30;;;;;;;;;;5071350;28;20017;-59
2021/07/31 14:31:17;;;;;;;1.63;0.43;;;;;;;;;;5053266;28;20526;-60
2021/07/31 14:33:42;;;;;;;3.70;0.60;;;;;;;;;;5070706;28;20021;-59
2021/07/31 14:36:07;;;;;;;1.27;0.30;;;;;;;;;;5070814;28;20270;-60
2021/07/31 14:38:33;;;;;;;1.80;0.57;;;;;;;;;;5070990;28;20069;-60